sensor_id;sensor_type;location;lat;lon;timestamp;P1;durP1;ratioP1;P2;durP2;ratioP2
48578;SDS011;34357;51.948;6.132;2022-09-13T00:00:15;16.83;;;14.68;;
48578;SDS011;34357;51.948;6.132;2022-09-13T00:02:41;22.38;;;16.25;;
48578;SDS011;34357;51.948;6.132;2022-09-13T00:05:07;20.80;;;15.70;;
48578;SDS011;34357;51.948;6.132;2022-09-13T00:07:33;18.67;;;14.77;;
48578;SDS011;34357;51.948;6.132;2022-09-13T00:09:58;17.90;;;15.48;;
48578;SDS011;34357;51.948;6.132;2022-09-13T00:12:24;19.70;;;15.90;;
48578;SDS011;34357;51.948;6.132;2022-09-13T00:14:50;17.90;;;15.02;;
48578;SDS011;34357;51.948;6.132;2022-09-13T00:17:15;20.80;;;15.77;;
48578;SDS011;34357;51.948;6.132;2022-09-13T00:19:41;21.70;;;15.50;;
48578;SDS011;34357;51.948;6.132;2022-09-13T00:22:07;18.33;;;16.45;;
48578;SDS011;34357;51.948;6.132;2022-09-13T00:24:32;19.60;;;15.65;;
48578;SDS011;34357;51.948;6.132;2022-09-13T00:26:59;17.92;;;16.13;;
48578;SDS011;34357;51.948;6.132;2022-09-13T00:29:25;20.77;;;15.68;;
48578;SDS011;34357;51.948;6.132;2022-09-13T00:31:51;18.83;;;16.75;;
48578;SDS011;34357;51.948;6.132;2022-09-13T00:34:17;24.60;;;17.27;;
48578;SDS011;34357;51.948;6.132;2022-09-13T00:36:43;18.40;;;16.50;;
48578;SDS011;34357;51.948;6.132;2022-09-13T00:39:09;18.77;;;16.35;;
48578;SDS011;34357;51.948;6.132;2022-09-13T00:41:35;19.75;;;16.67;;
48578;SDS011;34357;51.948;6.132;2022-09-13T00:44:02;19.60;;;16.40;;
48578;SDS011;34357;51.948;6.132;2022-09-13T00:46:42;20.77;;;17.60;;
48578;SDS011;34357;51.948;6.132;2022-09-13T00:49:14;20.83;;;18.77;;
48578;SDS011;34357;51.948;6.132;2022-09-13T00:51:50;23.70;;;18.52;;
48578;SDS011;34357;51.948;6.132;2022-09-13T00:54:21;19.30;;;17.23;;
48578;SDS011;34357;51.948;6.132;2022-09-13T00:56:52;20.77;;;18.52;;
48578;SDS011;34357;51.948;6.132;2022-09-13T00:59:31;22.10;;;17.90;;
48578;SDS011;34357;51.948;6.132;2022-09-13T01:02:05;22.42;;;17.33;;
48578;SDS011;34357;51.948;6.132;2022-09-13T01:04:31;29.88;;;20.25;;
48578;SDS011;34357;51.948;6.132;2022-09-13T01:07:00;22.42;;;17.50;;
48578;SDS011;34357;51.948;6.132;2022-09-13T01:09:28;21.70;;;18.13;;
48578;SDS011;34357;51.948;6.132;2022-09-13T01:12:02;22.58;;;19.52;;
48578;SDS011;34357;51.948;6.132;2022-09-13T01:17:04;22.63;;;19.20;;
48578;SDS011;34357;51.948;6.132;2022-09-13T01:19:30;23.67;;;20.55;;
48578;SDS011;34357;51.948;6.132;2022-09-13T01:27:51;23.08;;;19.38;;
48578;SDS011;34357;51.948;6.132;2022-09-13T01:30:42;21.70;;;19.45;;
48578;SDS011;34357;51.948;6.132;2022-09-13T01:39:16;23.17;;;19.13;;
48578;SDS011;34357;51.948;6.132;2022-09-13T01:47:26;23.20;;;19.70;;
48578;SDS011;34357;51.948;6.132;2022-09-13T01:50:07;23.92;;;19.65;;
48578;SDS011;34357;51.948;6.132;2022-09-13T01:52:48;24.08;;;21.13;;
48578;SDS011;34357;51.948;6.132;2022-09-13T01:55:35;22.15;;;19.75;;
48578;SDS011;34357;51.948;6.132;2022-09-13T01:58:26;20.42;;;18.23;;
48578;SDS011;34357;51.948;6.132;2022-09-13T02:01:05;24.08;;;18.58;;
48578;SDS011;34357;51.948;6.132;2022-09-13T02:03:51;21.60;;;18.95;;
48578;SDS011;34357;51.948;6.132;2022-09-13T02:06:25;21.83;;;19.25;;
48578;SDS011;34357;51.948;6.132;2022-09-13T02:08:56;22.85;;;19.17;;
48578;SDS011;34357;51.948;6.132;2022-09-13T02:11:29;23.27;;;19.30;;
48578;SDS011;34357;51.948;6.132;2022-09-13T02:19:10;23.10;;;18.67;;
48578;SDS011;34357;51.948;6.132;2022-09-13T02:21:45;20.77;;;18.33;;
48578;SDS011;34357;51.948;6.132;2022-09-13T02:24:17;22.63;;;19.60;;
48578;SDS011;34357;51.948;6.132;2022-09-13T02:26:46;26.13;;;19.27;;
48578;SDS011;34357;51.948;6.132;2022-09-13T02:29:22;22.80;;;19.05;;
48578;SDS011;34357;51.948;6.132;2022-09-13T02:31:58;18.87;;;16.97;;
48578;SDS011;34357;51.948;6.132;2022-09-13T02:34:37;19.90;;;17.75;;
48578;SDS011;34357;51.948;6.132;2022-09-13T02:37:06;20.65;;;17.85;;
48578;SDS011;34357;51.948;6.132;2022-09-13T02:39:35;23.77;;;19.52;;
48578;SDS011;34357;51.948;6.132;2022-09-13T02:42:48;20.48;;;17.85;;
48578;SDS011;34357;51.948;6.132;2022-09-13T02:44:57;23.70;;;19.30;;
48578;SDS011;34357;51.948;6.132;2022-09-13T02:47:28;23.75;;;18.55;;
48578;SDS011;34357;51.948;6.132;2022-09-13T02:53:03;24.27;;;18.13;;
48578;SDS011;34357;51.948;6.132;2022-09-13T02:55:40;23.00;;;17.55;;
48578;SDS011;34357;51.948;6.132;2022-09-13T02:58:11;22.50;;;19.00;;
48578;SDS011;34357;51.948;6.132;2022-09-13T03:00:41;19.73;;;16.67;;
48578;SDS011;34357;51.948;6.132;2022-09-13T03:03:08;21.58;;;17.27;;
48578;SDS011;34357;51.948;6.132;2022-09-13T03:05:36;19.35;;;16.80;;
48578;SDS011;34357;51.948;6.132;2022-09-13T03:08:02;19.23;;;16.65;;
48578;SDS011;34357;51.948;6.132;2022-09-13T03:10:31;21.48;;;17.48;;
48578;SDS011;34357;51.948;6.132;2022-09-13T03:19:27;30.67;;;19.75;;
48578;SDS011;34357;51.948;6.132;2022-09-13T03:21:59;27.23;;;20.42;;
48578;SDS011;34357;51.948;6.132;2022-09-13T03:24:31;23.83;;;21.15;;
48578;SDS011;34357;51.948;6.132;2022-09-13T03:35:36;22.30;;;19.85;;
48578;SDS011;34357;51.948;6.132;2022-09-13T03:38:18;26.67;;;20.25;;
48578;SDS011;34357;51.948;6.132;2022-09-13T03:40:52;27.50;;;21.13;;
48578;SDS011;34357;51.948;6.132;2022-09-13T03:43:25;24.88;;;20.42;;
48578;SDS011;34357;51.948;6.132;2022-09-13T03:45:59;23.75;;;20.73;;
48578;SDS011;34357;51.948;6.132;2022-09-13T03:48:40;24.83;;;21.15;;
48578;SDS011;34357;51.948;6.132;2022-09-13T03:51:07;24.33;;;20.50;;
48578;SDS011;34357;51.948;6.132;2022-09-13T03:53:36;24.83;;;21.98;;
48578;SDS011;34357;51.948;6.132;2022-09-13T03:56:13;23.35;;;20.60;;
48578;SDS011;34357;51.948;6.132;2022-09-13T03:58:40;26.83;;;22.63;;
48578;SDS011;34357;51.948;6.132;2022-09-13T04:01:06;24.80;;;22.15;;
48578;SDS011;34357;51.948;6.132;2022-09-13T04:03:34;24.38;;;21.50;;
48578;SDS011;34357;51.948;6.132;2022-09-13T04:06:03;26.63;;;21.92;;
48578;SDS011;34357;51.948;6.132;2022-09-13T04:08:33;28.55;;;22.30;;
48578;SDS011;34357;51.948;6.132;2022-09-13T04:10:58;25.50;;;22.02;;
48578;SDS011;34357;51.948;6.132;2022-09-13T04:13:25;23.23;;;19.95;;
48578;SDS011;34357;51.948;6.132;2022-09-13T04:15:51;23.40;;;20.83;;
48578;SDS011;34357;51.948;6.132;2022-09-13T04:18:17;24.77;;;22.20;;
48578;SDS011;34357;51.948;6.132;2022-09-13T04:20:42;25.55;;;22.17;;
48578;SDS011;34357;51.948;6.132;2022-09-13T04:23:08;24.70;;;22.20;;
48578;SDS011;34357;51.948;6.132;2022-09-13T04:25:37;27.70;;;21.98;;
48578;SDS011;34357;51.948;6.132;2022-09-13T04:28:03;27.63;;;21.98;;
48578;SDS011;34357;51.948;6.132;2022-09-13T04:30:28;25.75;;;23.02;;
48578;SDS011;34357;51.948;6.132;2022-09-13T04:32:55;26.55;;;22.05;;
48578;SDS011;34357;51.948;6.132;2022-09-13T04:35:20;23.98;;;20.85;;
48578;SDS011;34357;51.948;6.132;2022-09-13T04:37:46;25.42;;;21.02;;
48578;SDS011;34357;51.948;6.132;2022-09-13T04:40:12;22.27;;;19.75;;
48578;SDS011;34357;51.948;6.132;2022-09-13T04:42:38;25.40;;;21.60;;
48578;SDS011;34357;51.948;6.132;2022-09-13T04:45:04;24.70;;;20.42;;
48578;SDS011;34357;51.948;6.132;2022-09-13T04:47:30;26.00;;;20.52;;
48578;SDS011;34357;51.948;6.132;2022-09-13T04:49:56;21.90;;;18.65;;
48578;SDS011;34357;51.948;6.132;2022-09-13T04:52:22;21.88;;;18.83;;
48578;SDS011;34357;51.948;6.132;2022-09-13T04:54:48;22.05;;;18.40;;
48578;SDS011;34357;51.948;6.132;2022-09-13T04:57:14;28.08;;;19.75;;
48578;SDS011;34357;51.948;6.132;2022-09-13T04:59:43;19.92;;;17.73;;
48578;SDS011;34357;51.948;6.132;2022-09-13T05:02:08;20.88;;;17.00;;
48578;SDS011;34357;51.948;6.132;2022-09-13T05:04:34;23.45;;;19.35;;
48578;SDS011;34357;51.948;6.132;2022-09-13T05:07:00;21.27;;;18.05;;
48578;SDS011;34357;51.948;6.132;2022-09-13T05:09:26;20.67;;;17.48;;
48578;SDS011;34357;51.948;6.132;2022-09-13T05:11:51;23.63;;;18.85;;
48578;SDS011;34357;51.948;6.132;2022-09-13T05:14:17;26.08;;;19.00;;
48578;SDS011;34357;51.948;6.132;2022-09-13T05:16:43;19.52;;;17.42;;
48578;SDS011;34357;51.948;6.132;2022-09-13T05:19:09;23.40;;;17.67;;
48578;SDS011;34357;51.948;6.132;2022-09-13T05:21:36;30.40;;;18.48;;
48578;SDS011;34357;51.948;6.132;2022-09-13T05:24:01;22.55;;;17.17;;
48578;SDS011;34357;51.948;6.132;2022-09-13T05:26:28;20.33;;;17.33;;
48578;SDS011;34357;51.948;6.132;2022-09-13T05:29:00;21.42;;;17.02;;
48578;SDS011;34357;51.948;6.132;2022-09-13T05:31:33;21.85;;;17.83;;
48578;SDS011;34357;51.948;6.132;2022-09-13T05:34:02;19.20;;;16.90;;
48578;SDS011;34357;51.948;6.132;2022-09-13T05:36:34;24.55;;;17.70;;
48578;SDS011;34357;51.948;6.132;2022-09-13T05:39:00;21.63;;;16.88;;
48578;SDS011;34357;51.948;6.132;2022-09-13T05:41:26;21.13;;;17.70;;
48578;SDS011;34357;51.948;6.132;2022-09-13T05:43:52;21.20;;;17.10;;
48578;SDS011;34357;51.948;6.132;2022-09-13T05:46:18;21.23;;;17.13;;
48578;SDS011;34357;51.948;6.132;2022-09-13T05:48:45;21.80;;;17.10;;
48578;SDS011;34357;51.948;6.132;2022-09-13T05:51:13;20.90;;;16.85;;
48578;SDS011;34357;51.948;6.132;2022-09-13T05:53:40;23.50;;;18.17;;
48578;SDS011;34357;51.948;6.132;2022-09-13T05:56:07;23.80;;;17.58;;
48578;SDS011;34357;51.948;6.132;2022-09-13T05:58:37;21.10;;;15.98;;
48578;SDS011;34357;51.948;6.132;2022-09-13T06:01:04;18.67;;;16.45;;
48578;SDS011;34357;51.948;6.132;2022-09-13T06:03:30;20.60;;;16.90;;
48578;SDS011;34357;51.948;6.132;2022-09-13T06:05:56;21.08;;;17.08;;
48578;SDS011;34357;51.948;6.132;2022-09-13T06:08:26;20.70;;;17.50;;
48578;SDS011;34357;51.948;6.132;2022-09-13T06:10:54;21.20;;;17.92;;
48578;SDS011;34357;51.948;6.132;2022-09-13T06:13:24;25.00;;;17.90;;
48578;SDS011;34357;51.948;6.132;2022-09-13T06:15:50;24.08;;;18.38;;
48578;SDS011;34357;51.948;6.132;2022-09-13T06:18:17;20.52;;;16.38;;
48578;SDS011;34357;51.948;6.132;2022-09-13T06:20:43;22.13;;;17.10;;
48578;SDS011;34357;51.948;6.132;2022-09-13T06:23:09;19.75;;;16.58;;
48578;SDS011;34357;51.948;6.132;2022-09-13T06:25:35;20.33;;;16.88;;
48578;SDS011;34357;51.948;6.132;2022-09-13T06:28:02;21.10;;;17.13;;
48578;SDS011;34357;51.948;6.132;2022-09-13T06:30:27;23.67;;;17.90;;
48578;SDS011;34357;51.948;6.132;2022-09-13T06:32:54;19.60;;;15.45;;
48578;SDS011;34357;51.948;6.132;2022-09-13T06:35:21;22.13;;;18.00;;
48578;SDS011;34357;51.948;6.132;2022-09-13T06:37:46;21.50;;;17.67;;
48578;SDS011;34357;51.948;6.132;2022-09-13T06:40:12;22.98;;;19.02;;
48578;SDS011;34357;51.948;6.132;2022-09-13T06:42:38;25.08;;;18.13;;
48578;SDS011;34357;51.948;6.132;2022-09-13T06:45:04;20.95;;;17.92;;
48578;SDS011;34357;51.948;6.132;2022-09-13T06:47:31;25.83;;;18.48;;
48578;SDS011;34357;51.948;6.132;2022-09-13T06:49:57;22.77;;;19.05;;
48578;SDS011;34357;51.948;6.132;2022-09-13T06:52:23;22.90;;;18.50;;
48578;SDS011;34357;51.948;6.132;2022-09-13T06:54:49;24.20;;;19.02;;
48578;SDS011;34357;51.948;6.132;2022-09-13T06:57:15;27.55;;;19.27;;
48578;SDS011;34357;51.948;6.132;2022-09-13T06:59:40;27.25;;;19.38;;
48578;SDS011;34357;51.948;6.132;2022-09-13T07:02:06;27.42;;;19.73;;
48578;SDS011;34357;51.948;6.132;2022-09-13T07:04:33;25.02;;;19.88;;
48578;SDS011;34357;51.948;6.132;2022-09-13T07:06:59;22.15;;;19.35;;
48578;SDS011;34357;51.948;6.132;2022-09-13T07:09:25;23.73;;;19.80;;
48578;SDS011;34357;51.948;6.132;2022-09-13T07:11:52;23.45;;;19.27;;
48578;SDS011;34357;51.948;6.132;2022-09-13T07:14:24;29.75;;;20.98;;
48578;SDS011;34357;51.948;6.132;2022-09-13T07:16:51;26.73;;;19.55;;
48578;SDS011;34357;51.948;6.132;2022-09-13T07:19:19;25.58;;;20.60;;
48578;SDS011;34357;51.948;6.132;2022-09-13T07:21:47;24.90;;;20.40;;
48578;SDS011;34357;51.948;6.132;2022-09-13T07:24:14;25.60;;;20.95;;
48578;SDS011;34357;51.948;6.132;2022-09-13T07:26:40;27.27;;;22.10;;
48578;SDS011;34357;51.948;6.132;2022-09-13T07:29:07;24.25;;;21.67;;
48578;SDS011;34357;51.948;6.132;2022-09-13T07:31:36;28.63;;;23.08;;
48578;SDS011;34357;51.948;6.132;2022-09-13T07:34:07;28.60;;;23.27;;
48578;SDS011;34357;51.948;6.132;2022-09-13T07:36:43;28.05;;;23.35;;
48578;SDS011;34357;51.948;6.132;2022-09-13T07:39:10;29.85;;;23.02;;
48578;SDS011;34357;51.948;6.132;2022-09-13T07:41:37;29.05;;;22.65;;
48578;SDS011;34357;51.948;6.132;2022-09-13T07:44:03;24.83;;;20.85;;
48578;SDS011;34357;51.948;6.132;2022-09-13T07:46:32;33.83;;;25.42;;
48578;SDS011;34357;51.948;6.132;2022-09-13T07:49:02;28.58;;;23.02;;
48578;SDS011;34357;51.948;6.132;2022-09-13T07:51:28;30.60;;;24.13;;
48578;SDS011;34357;51.948;6.132;2022-09-13T07:53:59;28.45;;;23.52;;
48578;SDS011;34357;51.948;6.132;2022-09-13T07:56:31;37.08;;;26.35;;
48578;SDS011;34357;51.948;6.132;2022-09-13T07:59:03;28.42;;;23.58;;
48578;SDS011;34357;51.948;6.132;2022-09-13T08:01:34;34.55;;;25.65;;
48578;SDS011;34357;51.948;6.132;2022-09-13T08:04:04;32.67;;;24.95;;
48578;SDS011;34357;51.948;6.132;2022-09-13T08:06:32;31.02;;;24.45;;
48578;SDS011;34357;51.948;6.132;2022-09-13T08:08:58;29.52;;;23.50;;
48578;SDS011;34357;51.948;6.132;2022-09-13T08:11:26;32.42;;;25.63;;
48578;SDS011;34357;51.948;6.132;2022-09-13T08:13:55;27.20;;;23.13;;
48578;SDS011;34357;51.948;6.132;2022-09-13T08:16:22;29.00;;;22.77;;
48578;SDS011;34357;51.948;6.132;2022-09-13T08:18:49;29.55;;;22.05;;
48578;SDS011;34357;51.948;6.132;2022-09-13T08:21:17;26.38;;;18.50;;
48578;SDS011;34357;51.948;6.132;2022-09-13T08:23:43;23.20;;;17.35;;
48578;SDS011;34357;51.948;6.132;2022-09-13T08:26:09;20.75;;;13.85;;
48578;SDS011;34357;51.948;6.132;2022-09-13T08:28:35;20.13;;;15.20;;
48578;SDS011;34357;51.948;6.132;2022-09-13T08:31:09;19.65;;;15.18;;
48578;SDS011;34357;51.948;6.132;2022-09-13T08:33:38;15.50;;;12.77;;
48578;SDS011;34357;51.948;6.132;2022-09-13T08:36:04;17.45;;;12.35;;
48578;SDS011;34357;51.948;6.132;2022-09-13T08:38:30;16.67;;;12.10;;
48578;SDS011;34357;51.948;6.132;2022-09-13T08:40:57;17.45;;;12.15;;
48578;SDS011;34357;51.948;6.132;2022-09-13T08:48:29;14.40;;;10.48;;
48578;SDS011;34357;51.948;6.132;2022-09-13T08:51:04;16.65;;;11.80;;
48578;SDS011;34357;51.948;6.132;2022-09-13T08:53:44;17.02;;;10.88;;
48578;SDS011;34357;51.948;6.132;2022-09-13T09:06:34;14.23;;;10.98;;
48578;SDS011;34357;51.948;6.132;2022-09-13T09:09:04;15.25;;;11.75;;
48578;SDS011;34357;51.948;6.132;2022-09-13T09:11:47;15.30;;;11.48;;
48578;SDS011;34357;51.948;6.132;2022-09-13T09:14:25;16.70;;;12.00;;
48578;SDS011;34357;51.948;6.132;2022-09-13T09:17:03;18.73;;;11.18;;
48578;SDS011;34357;51.948;6.132;2022-09-13T09:19:45;14.35;;;11.57;;
48578;SDS011;34357;51.948;6.132;2022-09-13T09:22:17;15.98;;;11.32;;
48578;SDS011;34357;51.948;6.132;2022-09-13T09:24:50;13.93;;;10.45;;
48578;SDS011;34357;51.948;6.132;2022-09-13T09:27:19;14.57;;;10.00;;
48578;SDS011;34357;51.948;6.132;2022-09-13T09:29:52;18.20;;;11.55;;
48578;SDS011;34357;51.948;6.132;2022-09-13T09:37:31;13.90;;;11.47;;
48578;SDS011;34357;51.948;6.132;2022-09-13T09:40:02;16.63;;;11.15;;
48578;SDS011;34357;51.948;6.132;2022-09-13T09:42:43;12.15;;;10.45;;
48578;SDS011;34357;51.948;6.132;2022-09-13T09:45:56;15.00;;;9.82;;
48578;SDS011;34357;51.948;6.132;2022-09-13T09:47:59;13.35;;;10.32;;
48578;SDS011;34357;51.948;6.132;2022-09-13T09:50:32;13.82;;;10.23;;
48578;SDS011;34357;51.948;6.132;2022-09-13T09:53:15;16.60;;;12.07;;
48578;SDS011;34357;51.948;6.132;2022-09-13T09:58:37;13.52;;;10.90;;
48578;SDS011;34357;51.948;6.132;2022-09-13T10:01:08;15.57;;;11.23;;
48578;SDS011;34357;51.948;6.132;2022-09-13T10:03:49;12.30;;;10.43;;
48578;SDS011;34357;51.948;6.132;2022-09-13T10:06:25;15.75;;;10.55;;
48578;SDS011;34357;51.948;6.132;2022-09-13T10:09:01;14.98;;;11.30;;
48578;SDS011;34357;51.948;6.132;2022-09-13T10:19:57;5.75;;;4.78;;
48578;SDS011;34357;51.948;6.132;2022-09-13T10:22:29;8.32;;;4.50;;
48578;SDS011;34357;51.948;6.132;2022-09-13T10:27:42;6.28;;;4.80;;
48578;SDS011;34357;51.948;6.132;2022-09-13T10:30:33;6.40;;;4.35;;
48578;SDS011;34357;51.948;6.132;2022-09-13T10:33:26;7.68;;;5.05;;
48578;SDS011;34357;51.948;6.132;2022-09-13T10:35:56;10.50;;;5.88;;
48578;SDS011;34357;51.948;6.132;2022-09-13T10:38:29;7.68;;;5.00;;
48578;SDS011;34357;51.948;6.132;2022-09-13T10:40:58;9.38;;;5.43;;
48578;SDS011;34357;51.948;6.132;2022-09-13T10:43:27;8.43;;;4.78;;
48578;SDS011;34357;51.948;6.132;2022-09-13T10:45:54;8.32;;;5.22;;
48578;SDS011;34357;51.948;6.132;2022-09-13T10:48:22;6.57;;;5.50;;
48578;SDS011;34357;51.948;6.132;2022-09-13T10:51:07;8.40;;;4.55;;
48578;SDS011;34357;51.948;6.132;2022-09-13T10:56:39;7.38;;;5.65;;
48578;SDS011;34357;51.948;6.132;2022-09-13T10:59:15;13.48;;;4.50;;
48578;SDS011;34357;51.948;6.132;2022-09-13T11:04:54;6.65;;;4.07;;
48578;SDS011;34357;51.948;6.132;2022-09-13T11:10:34;7.30;;;4.10;;
48578;SDS011;34357;51.948;6.132;2022-09-13T11:19:01;4.50;;;2.10;;
48578;SDS011;34357;51.948;6.132;2022-09-13T11:24:27;3.53;;;2.03;;
48578;SDS011;34357;51.948;6.132;2022-09-13T11:35:41;2.33;;;1.70;;
48578;SDS011;34357;51.948;6.132;2022-09-13T11:46:57;7.18;;;2.55;;
48578;SDS011;34357;51.948;6.132;2022-09-13T11:52:33;4.90;;;2.63;;
48578;SDS011;34357;51.948;6.132;2022-09-13T11:58:03;4.03;;;2.38;;
48578;SDS011;34357;51.948;6.132;2022-09-13T12:00:42;5.78;;;2.17;;
48578;SDS011;34357;51.948;6.132;2022-09-13T12:03:19;2.85;;;2.00;;
48578;SDS011;34357;51.948;6.132;2022-09-13T12:06:05;4.82;;;2.20;;
48578;SDS011;34357;51.948;6.132;2022-09-13T12:08:39;4.18;;;1.80;;
48578;SDS011;34357;51.948;6.132;2022-09-13T12:11:21;2.72;;;1.90;;
48578;SDS011;34357;51.948;6.132;2022-09-13T12:13:53;3.50;;;1.50;;
48578;SDS011;34357;51.948;6.132;2022-09-13T12:16:24;4.75;;;1.80;;
48578;SDS011;34357;51.948;6.132;2022-09-13T12:21:54;3.95;;;1.27;;
48578;SDS011;34357;51.948;6.132;2022-09-13T12:24:28;2.83;;;1.05;;
48578;SDS011;34357;51.948;6.132;2022-09-13T12:27:03;2.17;;;1.10;;
48578;SDS011;34357;51.948;6.132;2022-09-13T12:32:04;2.00;;;1.23;;
48578;SDS011;34357;51.948;6.132;2022-09-13T12:40:15;1.58;;;0.82;;
48578;SDS011;34357;51.948;6.132;2022-09-13T12:45:59;3.35;;;0.80;;
48578;SDS011;34357;51.948;6.132;2022-09-13T12:51:13;4.45;;;1.00;;
48578;SDS011;34357;51.948;6.132;2022-09-13T12:54:00;3.60;;;0.80;;
48578;SDS011;34357;51.948;6.132;2022-09-13T13:02:32;1.92;;;0.65;;
48578;SDS011;34357;51.948;6.132;2022-09-13T13:05:03;3.72;;;0.68;;
48578;SDS011;34357;51.948;6.132;2022-09-13T13:07:39;0.93;;;0.40;;
48578;SDS011;34357;51.948;6.132;2022-09-13T13:10:21;1.98;;;0.90;;
48578;SDS011;34357;51.948;6.132;2022-09-13T13:12:54;2.33;;;0.77;;
48578;SDS011;34357;51.948;6.132;2022-09-13T13:17:51;1.50;;;0.80;;
48578;SDS011;34357;51.948;6.132;2022-09-13T13:23:12;2.38;;;0.70;;
48578;SDS011;34357;51.948;6.132;2022-09-13T13:25:53;3.67;;;0.68;;
48578;SDS011;34357;51.948;6.132;2022-09-13T13:36:27;1.75;;;0.63;;
48578;SDS011;34357;51.948;6.132;2022-09-13T13:38:58;2.22;;;0.80;;
48578;SDS011;34357;51.948;6.132;2022-09-13T13:46:39;2.72;;;0.60;;
48578;SDS011;34357;51.948;6.132;2022-09-13T13:54:56;5.57;;;0.70;;
48578;SDS011;34357;51.948;6.132;2022-09-13T13:59:56;2.83;;;0.90;;
48578;SDS011;34357;51.948;6.132;2022-09-13T14:02:42;3.38;;;0.75;;
48578;SDS011;34357;51.948;6.132;2022-09-13T14:05:24;3.03;;;0.73;;
48578;SDS011;34357;51.948;6.132;2022-09-13T14:10:53;1.88;;;0.60;;
48578;SDS011;34357;51.948;6.132;2022-09-13T14:21:39;5.07;;;1.00;;
48578;SDS011;34357;51.948;6.132;2022-09-13T14:24:14;2.20;;;0.60;;
48578;SDS011;34357;51.948;6.132;2022-09-13T14:26:47;1.15;;;0.43;;
48578;SDS011;34357;51.948;6.132;2022-09-13T14:31:44;2.35;;;0.50;;
48578;SDS011;34357;51.948;6.132;2022-09-13T14:34:20;1.40;;;0.60;;
48578;SDS011;34357;51.948;6.132;2022-09-13T14:36:58;2.53;;;0.57;;
48578;SDS011;34357;51.948;6.132;2022-09-13T14:39:26;1.95;;;0.60;;
48578;SDS011;34357;51.948;6.132;2022-09-13T14:42:06;3.28;;;0.70;;
48578;SDS011;34357;51.948;6.132;2022-09-13T14:44:43;3.30;;;0.60;;
48578;SDS011;34357;51.948;6.132;2022-09-13T14:49:44;3.17;;;0.60;;
48578;SDS011;34357;51.948;6.132;2022-09-13T14:52:22;3.15;;;0.98;;
48578;SDS011;34357;51.948;6.132;2022-09-13T14:54:53;1.10;;;0.60;;
48578;SDS011;34357;51.948;6.132;2022-09-13T14:57:29;4.43;;;0.73;;
48578;SDS011;34357;51.948;6.132;2022-09-13T15:00:03;2.25;;;0.65;;
48578;SDS011;34357;51.948;6.132;2022-09-13T15:02:36;1.50;;;0.70;;
48578;SDS011;34357;51.948;6.132;2022-09-13T15:05:05;3.10;;;1.05;;
48578;SDS011;34357;51.948;6.132;2022-09-13T15:07:37;1.77;;;0.70;;
48578;SDS011;34357;51.948;6.132;2022-09-13T15:12:30;2.78;;;0.70;;
48578;SDS011;34357;51.948;6.132;2022-09-13T15:18:30;2.97;;;0.60;;
48578;SDS011;34357;51.948;6.132;2022-09-13T15:23:24;4.45;;;0.80;;
48578;SDS011;34357;51.948;6.132;2022-09-13T15:26:08;3.05;;;0.70;;
48578;SDS011;34357;51.948;6.132;2022-09-13T15:31:09;2.80;;;0.65;;
48578;SDS011;34357;51.948;6.132;2022-09-13T15:33:44;3.58;;;0.65;;
48578;SDS011;34357;51.948;6.132;2022-09-13T15:41:27;5.32;;;1.02;;
48578;SDS011;34357;51.948;6.132;2022-09-13T15:43:56;2.17;;;0.70;;
48578;SDS011;34357;51.948;6.132;2022-09-13T15:46:22;4.15;;;0.52;;
48578;SDS011;34357;51.948;6.132;2022-09-13T15:48:50;4.55;;;0.70;;
48578;SDS011;34357;51.948;6.132;2022-09-13T15:51:20;1.05;;;0.50;;
48578;SDS011;34357;51.948;6.132;2022-09-13T15:53:47;2.10;;;0.88;;
48578;SDS011;34357;51.948;6.132;2022-09-13T15:56:20;5.72;;;1.95;;
48578;SDS011;34357;51.948;6.132;2022-09-13T15:58:49;4.53;;;1.10;;
48578;SDS011;34357;51.948;6.132;2022-09-13T16:01:15;3.35;;;0.70;;
48578;SDS011;34357;51.948;6.132;2022-09-13T16:03:41;4.75;;;1.00;;
48578;SDS011;34357;51.948;6.132;2022-09-13T16:06:07;5.28;;;0.88;;
48578;SDS011;34357;51.948;6.132;2022-09-13T16:08:37;4.85;;;0.85;;
48578;SDS011;34357;51.948;6.132;2022-09-13T16:11:03;5.43;;;0.93;;
48578;SDS011;34357;51.948;6.132;2022-09-13T16:13:30;3.45;;;0.82;;
48578;SDS011;34357;51.948;6.132;2022-09-13T16:15:55;1.75;;;0.60;;
48578;SDS011;34357;51.948;6.132;2022-09-13T16:18:21;7.70;;;0.90;;
48578;SDS011;34357;51.948;6.132;2022-09-13T16:20:48;3.67;;;0.80;;
48578;SDS011;34357;51.948;6.132;2022-09-13T16:23:14;8.65;;;0.77;;
48578;SDS011;34357;51.948;6.132;2022-09-13T16:25:40;7.88;;;1.13;;
48578;SDS011;34357;51.948;6.132;2022-09-13T16:28:06;7.38;;;1.15;;
48578;SDS011;34357;51.948;6.132;2022-09-13T16:30:32;5.72;;;0.75;;
48578;SDS011;34357;51.948;6.132;2022-09-13T16:32:59;3.63;;;0.80;;
48578;SDS011;34357;51.948;6.132;2022-09-13T16:35:25;4.60;;;1.00;;
48578;SDS011;34357;51.948;6.132;2022-09-13T16:37:53;4.60;;;1.00;;
48578;SDS011;34357;51.948;6.132;2022-09-13T16:40:19;5.78;;;0.93;;
48578;SDS011;34357;51.948;6.132;2022-09-13T16:42:46;4.25;;;0.90;;
48578;SDS011;34357;51.948;6.132;2022-09-13T16:45:12;3.22;;;0.75;;
48578;SDS011;34357;51.948;6.132;2022-09-13T16:47:38;7.03;;;0.98;;
48578;SDS011;34357;51.948;6.132;2022-09-13T16:50:05;12.18;;;1.20;;
48578;SDS011;34357;51.948;6.132;2022-09-13T16:52:33;4.53;;;0.95;;
48578;SDS011;34357;51.948;6.132;2022-09-13T16:54:59;5.85;;;1.20;;
48578;SDS011;34357;51.948;6.132;2022-09-13T16:57:26;5.90;;;0.95;;
48578;SDS011;34357;51.948;6.132;2022-09-13T16:59:52;4.88;;;1.05;;
48578;SDS011;34357;51.948;6.132;2022-09-13T17:02:19;4.55;;;0.82;;
48578;SDS011;34357;51.948;6.132;2022-09-13T17:04:45;6.00;;;1.60;;
48578;SDS011;34357;51.948;6.132;2022-09-13T17:07:11;5.70;;;1.20;;
48578;SDS011;34357;51.948;6.132;2022-09-13T17:09:38;4.97;;;1.25;;
48578;SDS011;34357;51.948;6.132;2022-09-13T17:12:05;5.05;;;0.80;;
48578;SDS011;34357;51.948;6.132;2022-09-13T17:14:32;6.28;;;1.15;;
48578;SDS011;34357;51.948;6.132;2022-09-13T17:16:58;4.13;;;0.70;;
48578;SDS011;34357;51.948;6.132;2022-09-13T17:19:25;4.50;;;0.82;;
48578;SDS011;34357;51.948;6.132;2022-09-13T17:21:55;8.55;;;0.90;;
48578;SDS011;34357;51.948;6.132;2022-09-13T17:24:22;6.82;;;1.10;;
48578;SDS011;34357;51.948;6.132;2022-09-13T17:26:49;9.13;;;1.30;;
48578;SDS011;34357;51.948;6.132;2022-09-13T17:29:15;5.68;;;0.75;;
48578;SDS011;34357;51.948;6.132;2022-09-13T17:31:41;8.00;;;1.20;;
48578;SDS011;34357;51.948;6.132;2022-09-13T17:34:07;5.60;;;0.90;;
48578;SDS011;34357;51.948;6.132;2022-09-13T17:36:34;6.13;;;0.77;;
48578;SDS011;34357;51.948;6.132;2022-09-13T17:39:00;6.00;;;0.90;;
48578;SDS011;34357;51.948;6.132;2022-09-13T17:41:26;6.90;;;1.25;;
48578;SDS011;34357;51.948;6.132;2022-09-13T17:43:52;5.55;;;0.88;;
48578;SDS011;34357;51.948;6.132;2022-09-13T17:46:19;2.85;;;1.10;;
48578;SDS011;34357;51.948;6.132;2022-09-13T17:48:47;5.50;;;0.73;;
48578;SDS011;34357;51.948;6.132;2022-09-13T17:51:17;4.63;;;1.08;;
48578;SDS011;34357;51.948;6.132;2022-09-13T17:53:48;5.43;;;0.95;;
48578;SDS011;34357;51.948;6.132;2022-09-13T17:56:16;8.57;;;0.98;;
48578;SDS011;34357;51.948;6.132;2022-09-13T17:58:47;5.00;;;1.48;;
48578;SDS011;34357;51.948;6.132;2022-09-13T18:01:13;5.22;;;1.02;;
48578;SDS011;34357;51.948;6.132;2022-09-13T18:03:40;5.90;;;0.90;;
48578;SDS011;34357;51.948;6.132;2022-09-13T18:06:06;5.88;;;1.02;;
48578;SDS011;34357;51.948;6.132;2022-09-13T18:08:34;7.15;;;1.00;;